Flight Track Log - Related Links

Times and Time Zones

All times are in EDT time to prevent confusion due to time zone crossing. See the EJA829P flight status page for this flight to view local times or setup timezone preferences in your user account.

Time Position Orientation Groundspeed Altitude Reporting Facility
EDT Latitude Longitude Course Direction KTS MPH feet Rate Location/Type
Wed 10:24:26 PM 40.8667 -74.0500 360° North 164 189 1,800  Level New York TRACON
Wed 10:25:26 PM 40.9167 -74.0500 360° North 173 199 2,100 1,350 Climbing New York TRACON
Wed 10:26:26 PM 40.9000 -74.1000 246° West 186 214 4,500 2,200 Climbing New York TRACON
Wed 10:27:26 PM 40.8833 -74.1833 255° West 239 275 6,500 1,250 Climbing New York TRACON
Wed 10:28:26 PM 40.8667 -74.2833 258° West 259 298 7,000 1,050 Climbing New York TRACON
Wed 10:29:26 PM 40.8500 -74.3667 255° West 254 292 8,600 2,100 Climbing New York TRACON
Wed 10:30:26 PM 40.8333 -74.4667 258° West 284 327 11,200 2,650 Climbing New York TRACON
Wed 10:31:26 PM 40.8500 -74.5667 282° West 265 305 13,900 1,750 Climbing New York TRACON
Wed 10:32:02 PM 40.8794 -74.5803 341° North 273 314 14,000 63 Climbing New York Center
Wed 10:33:02 PM 40.9539 -74.5900 354° North 263 303 14,000 100 Level New York Center
Wed 10:34:02 PM 40.9789 -74.6547 297° West 211 243 14,200 1,400 Climbing New York Center
Wed 10:35:02 PM 40.9692 -74.7639 263° West 232 267 16,800 1,400 Climbing New York Center
Wed 10:36:02 PM 40.9597 -74.8542 262° West 273 314 17,000 100 Climbing New York Center
Wed 10:37:02 PM 40.9456 -74.9658 261° West 289 333 17,000 1,100 Level New York Center
Wed 10:38:02 PM 40.9294 -75.0639 258° West 289 333 19,200 2,529 Climbing New York Center
Wed 10:39:03 PM 40.9150 -75.1700 260° West 289 333 22,100 2,800 Climbing New York Center
Wed 10:40:02 PM 40.8947 -75.2647 254° West 294 338 24,800 2,622 Climbing New York Center
Wed 10:41:02 PM 40.8719 -75.3703 254° West 299 344 27,300 2,450 Climbing New York Center
Wed 10:42:02 PM 40.8492 -75.4758 254° West 299 344 29,700 2,450 Climbing New York Center
Wed 10:43:02 PM 40.8242 -75.5808 253° West 299 344 32,200 2,100 Climbing New York Center
Wed 10:44:02 PM 40.7989 -75.6833 252° West 299 344 33,900 1,650 Climbing New York Center
Wed 10:45:02 PM 40.7736 -75.7911 253° West 299 344 35,500 1,750 Climbing New York Center
Wed 10:46:02 PM 40.7464 -75.8906 250° West 299 344 37,400 1,250 Climbing New York Center
Wed 10:47:02 PM 40.7231 -75.9983 254° West 299 344 38,000 300 Climbing New York Center
Wed 10:48:02 PM 40.6947 -76.1167 253° West 314 361 38,000  Level New York Center
Wed 10:49:02 PM 40.6681 -76.2431 254° West 340 391 38,000  Level New York Center
Wed 10:50:02 PM 40.6769 -76.3669 275° West 341 392 38,000  Level New York Center
Wed 10:51:02 PM 40.6939 -76.4917 280° West 348 400 38,000  Level New York Center
Wed 10:52:02 PM 40.7108 -76.6161 280° West 355 409 38,000  Level New York Center
Wed 10:53:02 PM 40.7253 -76.7433 279° West 355 409 38,000  Level New York Center
Wed 10:54:02 PM 40.7400 -76.8625 279° West 350 403 38,000  Level New York Center
Wed 10:55:02 PM 40.7564 -76.9872 280° West 350 403 38,000  Level New York Center
Wed 10:56:02 PM 40.7728 -77.1122 280° West 350 403 38,000  Level New York Center
Wed 10:57:02 PM 40.7889 -77.2369 280° West 350 403 38,000  Level New York Center
Wed 10:58:02 PM 40.8033 -77.3536 279° West 350 403 38,000  Level New York Center
Wed 10:59:02 PM 40.8172 -77.4756 279° West 344 396 38,000  Level New York Center
Wed 11:01:01 PM 40.8472 -77.7169 279° West 337 388 38,000  Level Cleveland Center
Wed 11:02:02 PM 40.8619 -77.8375 279° West 337 388 38,000  Level Cleveland Center
Wed 11:03:04 PM 40.8758 -77.9586 279° West 336 387 38,000  Level Cleveland Center
Wed 11:04:05 PM 40.8900 -78.0803 279° West 336 387 38,000  Level Cleveland Center
Wed 11:05:06 PM 40.9072 -78.2258 279° West 336 387 38,000  Level Cleveland Center
Wed 11:06:08 PM 40.9200 -78.3364 279° West 336 387 38,000  Level Cleveland Center
Wed 11:07:09 PM 40.9336 -78.4583 278° West 338 389 38,000  Level Cleveland Center
Wed 11:08:10 PM 40.9472 -78.5819 278° West 340 391 38,000  Level Cleveland Center
Wed 11:09:11 PM 40.9600 -78.7064 278° West 340 391 38,000  Level Cleveland Center
Wed 11:10:13 PM 40.9739 -78.8294 279° West 340 391 38,000  Level Cleveland Center
Wed 11:11:14 PM 40.9903 -78.9778 278° West 340 391 38,000  Level Cleveland Center
Wed 11:12:15 PM 41.0036 -79.1006 278° West 340 391 38,000  Level Cleveland Center
Wed 11:13:16 PM 41.0164 -79.2239 278° West 340 391 38,000  Level Cleveland Center
Wed 11:14:18 PM 41.0294 -79.3456 278° West 338 389 38,000  Level Cleveland Center
Wed 11:15:19 PM 41.0417 -79.4689 278° West 338 389 38,000  Level Cleveland Center
Wed 11:16:20 PM 41.0544 -79.5917 278° West 338 389 38,000  Level Cleveland Center
Wed 11:17:21 PM 41.0675 -79.7158 278° West 339 390 38,000  Level Cleveland Center
Wed 11:18:22 PM 41.0797 -79.8397 277° West 340 391 38,000  Level Cleveland Center
Wed 11:19:23 PM 41.0917 -79.9650 277° West 344 396 38,000  Level Cleveland Center
Wed 11:20:24 PM 41.1061 -80.1139 277° West 344 396 38,000  Level Cleveland Center
Wed 11:21:25 PM 41.1189 -80.2400 278° West 345 397 38,000  Level Cleveland Center
Wed 11:22:26 PM 41.1311 -80.3669 277° West 347 399 38,000  Level Cleveland Center
Wed 11:23:27 PM 41.1436 -80.4931 278° West 347 399 38,000  Level Cleveland Center
Wed 11:24:28 PM 41.1542 -80.6203 276° West 348 400 38,000  Level Cleveland Center
Wed 11:25:29 PM 41.1681 -80.7467 278° West 348 400 38,000  Level Cleveland Center
Wed 11:26:30 PM 41.1778 -80.8747 276° West 348 400 38,000  Level Cleveland Center
Wed 11:27:31 PM 41.1906 -81.0003 278° West 348 400 38,000  Level Cleveland Center
Wed 11:28:32 PM 41.2006 -81.1278 276° West 348 400 38,000  Level Cleveland Center
Wed 11:29:33 PM 41.2122 -81.2542 277° West 347 399 38,000  Level Cleveland Center
Wed 11:30:34 PM 41.2264 -81.4025 277° West 343 395 38,000  Level Cleveland Center
Wed 11:31:35 PM 41.2347 -81.5317 275° West 347 399 38,000  Level Cleveland Center
Wed 11:32:36 PM 41.2447 -81.6567 276° West 346 398 38,000  Level Cleveland Center
Wed 11:33:37 PM 41.2558 -81.7819 277° West 345 397 38,000  Level Cleveland Center
Wed 11:34:38 PM 41.2664 -81.9086 276° West 345 397 38,000  Level Cleveland Center
Wed 11:35:39 PM 41.2761 -82.0367 276° West 346 398 38,000  Level Cleveland Center
Wed 11:36:39 PM 41.2872 -82.1747 276° West 346 398 38,000  Level Cleveland Center
Wed 11:37:40 PM 41.2969 -82.3022 276° West 346 398 38,000  Level Cleveland Center
Wed 11:38:41 PM 41.3072 -82.4306 276° West 349 402 38,000  Level Cleveland Center
Wed 11:39:42 PM 41.3169 -82.5589 276° West 349 402 38,000  Level Cleveland Center
Wed 11:40:43 PM 41.3258 -82.6872 275° West 348 400 38,000  Level Cleveland Center
Wed 11:41:43 PM 41.3358 -82.8164 276° West 349 402 38,000  Level Cleveland Center
Wed 11:42:44 PM 41.3453 -82.9472 276° West 352 405 38,000  Level Cleveland Center
Wed 11:43:45 PM 41.3542 -83.0775 275° West 352 405 38,000  Level Cleveland Center
Wed 11:44:46 PM 41.3644 -83.2075 276° West 352 405 38,000  Level Cleveland Center
Wed 11:45:47 PM 41.3736 -83.3392 275° West 353 406 38,000  Level Cleveland Center
Wed 11:46:47 PM 41.3822 -83.4697 275° West 354 407 38,000  Level Cleveland Center
Wed 11:47:48 PM 41.3900 -83.6008 275° West 355 409 38,000  Level Cleveland Center
Wed 11:48:49 PM 41.3989 -83.7314 275° West 354 407 38,000  Level Cleveland Center
Wed 11:49:50 PM 41.4069 -83.8633 275° West 354 407 38,000  Level Cleveland Center
Wed 11:50:50 PM 41.4161 -83.9942 275° West 356 410 38,000  Level Cleveland Center
Wed 11:51:51 PM 41.4239 -84.1264 275° West 356 410 38,000  Level Cleveland Center
Wed 11:52:52 PM 41.4331 -84.2789 275° West 357 411 38,000  Level Cleveland Center
Wed 11:53:52 PM 41.4414 -84.4108 275° West 357 411 38,000  Level Cleveland Center
Wed 11:54:53 PM 41.4492 -84.5433 275° West 357 411 38,000  Level Cleveland Center
Wed 11:55:54 PM 41.4558 -84.6744 274° West 356 410 38,000  Level Cleveland Center
Wed 11:56:54 PM 41.4631 -84.8061 274° West 356 410 38,000  Level Cleveland Center
Wed 11:57:56 PM 41.4714 -84.9369 275° West 356 410 38,000  Level Cleveland Center
Wed 11:58:55 PM 41.4778 -85.0692 274° West 356 410 38,000 -650 Level Cleveland Center
Wed 11:59:56 PM 41.4850 -85.2003 274° West 356 410 36,700 -1,967 Descending Cleveland Center
Thu 12:00:57 AM 41.4911 -85.3272 274° West 345 397 34,000 -2,579 Descending Cleveland Center
Thu 12:01:57 AM 41.4967 -85.4461 274° West 324 373 31,500 -2,628 Descending Cleveland Center
Thu 12:02:58 AM 41.5036 -85.5719 274° West 331 381 28,700 -2,777 Descending Cleveland Center
Thu 12:03:58 AM 41.5097 -85.7047 274° West 351 404 25,900 -2,826 Descending Cleveland Center
Thu 12:04:59 AM 41.5161 -85.8369 274° West 354 407 23,000 -2,777 Descending Cleveland Center
Thu 12:05:59 AM 41.5211 -85.9625 273° West 343 395 20,300 -2,231 Descending Cleveland Center
Thu 12:07:00 AM 41.5197 -86.0856 269° West 335 386 18,500 -1,623 Descending Cleveland Center
Thu 12:08:01 AM 41.5194 -86.2083 270° West 333 383 17,000 -1,488 Descending Cleveland Center
Thu 12:09:01 AM 41.5200 -86.3269 270° West 323 372 15,500 -1,537 Descending Cleveland Center
Thu 12:10:02 AM 41.5194 -86.4436 270° West 322 371 13,900 -1,480 Descending Cleveland Center
Thu 12:11:31 AM 41.5186 -86.6083 270° West 317 365 11,800 -1,440 Descending Chicago Center
Thu 12:12:32 AM 41.5192 -86.7294 270° West 275 316 10,300 -1,388 Descending Chicago Center
Thu 12:13:32 AM 41.5194 -86.8281 270° West 267 307 9,000 -1,240 Descending Chicago Center
Thu 12:14:33 AM 41.5183 -86.9214 269° West 255 293 7,800 -1,190 Descending Chicago Center
Thu 12:15:33 AM 41.5181 -87.0106 270° West 243 280 6,600 -893 Descending Chicago Center
Thu 12:16:34 AM 41.5172 -87.1014 269° West 245 282 6,000 -295 Descending Chicago Center
Thu 12:17:35 AM 41.5581 -87.1772 306° West 264 304 6,000 -347 Level Chicago Center
Thu 12:18:35 AM 41.6108 -87.2444 316° Northwest 265 305 5,300 -942 Descending Chicago Center
Thu 12:19:36 AM 41.6647 -87.3142 316° Northwest 255 293 4,100 -1,140 Descending Chicago Center
Thu 12:20:36 AM 41.7144 -87.3775 316° Northwest 251 289 3,000 -545 Descending Chicago Center
Thu 12:21:37 AM 41.7636 -87.4394 317° Northwest 248 285 3,000  Level Chicago Center
Thu 12:22:37 AM 41.8133 -87.5031 316° Northwest 248 285 3,000  Level Chicago Center
Thu 12:23:38 AM 41.8469 -87.5636 307° West 208 239 3,000 -298 Level Chicago Center
Thu 12:24:38 AM 41.8461 -87.6222 269° West 161 185 2,400 -545 Descending Chicago Center
Thu 12:25:39 AM 41.8378 -87.6644 255° West 123 142 1,900 -496 Descending Chicago Center
Thu 12:26:39 AM 41.8211 -87.7017 239° Southwest 121 139 1,400 -446 Descending Chicago Center
Thu 12:27:40 AM 41.8031 -87.7292 229° Southwest 103 119 1,000 -347 Descending Chicago Center
Thu 12:28:40 AM 41.7811 -87.7558 222° Southwest 102 117 700 -300 Descending Chicago Center

Login

Don't have an account? Register now (free) for customized features, flight alerts, and more!